createdAt,value
2022-12-29T00:00:44.119Z,2.20
2022-12-29T00:02:06.315Z,1.73
2022-12-29T00:03:28.492Z,1.73
2022-12-29T00:04:52.175Z,2.00
2022-12-29T00:06:14.329Z,1.97
2022-12-29T00:07:36.631Z,1.80
2022-12-29T00:08:58.816Z,2.23
2022-12-29T00:10:20.893Z,1.73
2022-12-29T00:11:43.393Z,2.23
2022-12-29T00:13:23.920Z,1.90
2022-12-29T00:15:04.364Z,2.20
2022-12-29T00:16:27.694Z,1.73
2022-12-29T00:17:49.774Z,1.70
2022-12-29T00:19:31.937Z,2.13
2022-12-29T00:20:57.654Z,1.77
2022-12-29T00:22:38.436Z,2.10
2022-12-29T00:24:19.757Z,1.80
2022-12-29T00:26:00.496Z,1.83
2022-12-29T00:27:41.341Z,2.13
2022-12-29T00:29:22.759Z,1.70
2022-12-29T00:31:03.661Z,2.10
2022-12-29T00:32:44.353Z,1.90
2022-12-29T00:34:29.886Z,2.40
2022-12-29T00:35:55.798Z,2.10
2022-12-29T00:37:41.284Z,2.20
2022-12-29T00:39:28.661Z,2.07
2022-12-29T00:41:09.524Z,2.40
2022-12-29T00:43:03.742Z,1.90
2022-12-29T00:44:26.230Z,1.70
2022-12-29T00:45:48.292Z,2.40
2022-12-29T00:47:10.392Z,1.90
2022-12-29T00:48:51.214Z,1.90
2022-12-29T00:50:13.320Z,1.70
2022-12-29T00:51:35.774Z,2.47
2022-12-29T00:52:57.853Z,2.07
2022-12-29T00:54:20.496Z,2.13
2022-12-29T00:55:43.302Z,1.73
2022-12-29T00:57:07.578Z,2.03
2022-12-29T00:58:30.681Z,2.00
2022-12-29T00:59:52.825Z,2.20
2022-12-29T01:01:15.104Z,1.93
2022-12-29T01:02:37.408Z,2.40
2022-12-29T01:04:03.663Z,2.20
2022-12-29T01:05:26.676Z,1.80
2022-12-29T01:06:49.227Z,1.80
2022-12-29T01:08:11.289Z,2.20
2022-12-29T01:09:52.471Z,1.60
2022-12-29T01:11:14.549Z,2.03
2022-12-29T01:12:43.059Z,1.63
2022-12-29T01:14:05.874Z,1.90
2022-12-29T01:15:28.255Z,1.90
2022-12-29T01:16:50.708Z,2.37
2022-12-29T01:18:12.732Z,2.00
2022-12-29T01:19:34.763Z,1.83
2022-12-29T01:21:01.768Z,2.63
2022-12-29T01:22:23.872Z,2.30
2022-12-29T01:23:45.891Z,1.73
2022-12-29T01:25:08.640Z,2.20
2022-12-29T01:26:30.981Z,1.90
2022-12-29T01:27:53.269Z,1.87
2022-12-29T01:29:15.472Z,2.30
2022-12-29T01:30:37.608Z,2.17
2022-12-29T01:32:00.005Z,1.97
2022-12-29T01:33:22.098Z,2.20
2022-12-29T01:34:44.629Z,2.00
2022-12-29T01:36:09.931Z,1.63
2022-12-29T01:37:32.024Z,1.93
2022-12-29T01:38:54.179Z,1.80
2022-12-29T01:40:16.325Z,1.67
2022-12-29T01:41:40.092Z,2.07
2022-12-29T01:43:02.143Z,2.17
2022-12-29T01:44:56.505Z,1.87
2022-12-29T01:46:25.019Z,3.10
2022-12-29T01:47:53.360Z,1.83
2022-12-29T01:49:20.514Z,2.40
2022-12-29T01:50:53.249Z,2.43
2022-12-29T01:52:15.727Z,2.80
2022-12-29T01:53:38.822Z,2.73
2022-12-29T01:55:02.576Z,2.17
2022-12-29T01:56:25.370Z,1.70
2022-12-29T01:57:52.489Z,2.03
2022-12-29T01:59:20.283Z,2.20
2022-12-29T02:00:42.438Z,1.87
2022-12-29T02:02:05.486Z,2.10
2022-12-29T02:03:29.779Z,1.90
2022-12-29T02:04:53.750Z,1.77
2022-12-29T02:06:24.912Z,2.10
2022-12-29T02:07:49.527Z,1.70
2022-12-29T02:09:11.949Z,2.13
2022-12-29T02:10:36.648Z,1.73
2022-12-29T02:12:02.170Z,1.67
2022-12-29T02:13:28.828Z,1.83
2022-12-29T02:14:56.474Z,1.70
2022-12-29T02:16:30.884Z,2.20
2022-12-29T02:18:11.502Z,1.60
2022-12-29T02:19:45.936Z,2.07
2022-12-29T02:21:39.238Z,1.90
2022-12-29T02:23:19.806Z,1.77
2022-12-29T02:24:55.464Z,1.93
2022-12-29T02:26:42.230Z,2.00
2022-12-29T02:28:28.499Z,1.90
2022-12-29T02:30:16.543Z,2.07
2022-12-29T02:32:04.849Z,2.40
2022-12-29T02:33:42.915Z,2.17
2022-12-29T02:35:22.496Z,1.97
2022-12-29T02:36:50.031Z,2.23
2022-12-29T02:38:41.373Z,1.80
2022-12-29T02:40:26.510Z,2.10
2022-12-29T02:42:22.206Z,2.17
2022-12-29T02:44:02.877Z,1.90
2022-12-29T02:45:33.556Z,2.90
2022-12-29T02:47:29.497Z,1.50
2022-12-29T02:49:13.160Z,2.07
2022-12-29T02:50:59.957Z,1.97
2022-12-29T02:52:32.648Z,1.70
2022-12-29T02:54:14.718Z,2.00
2022-12-29T02:55:36.829Z,1.83
2022-12-29T02:56:58.915Z,2.00
2022-12-29T02:58:23.537Z,1.77
2022-12-29T02:59:48.407Z,1.77
2022-12-29T03:01:41.299Z,2.33
2022-12-29T03:03:31.743Z,1.90
2022-12-29T03:05:02.939Z,1.83
2022-12-29T03:06:53.254Z,1.83
2022-12-29T03:08:22.966Z,1.83
2022-12-29T03:10:02.633Z,1.87
2022-12-29T03:11:50.748Z,1.80
2022-12-29T03:13:31.403Z,2.00
2022-12-29T03:15:21.451Z,2.00
2022-12-29T03:16:48.391Z,1.97
2022-12-29T03:18:16.532Z,1.77
2022-12-29T03:19:48.565Z,2.37
2022-12-29T03:21:13.690Z,2.10
2022-12-29T03:22:41.030Z,2.13
2022-12-29T03:24:05.992Z,1.73
2022-12-29T03:25:39.223Z,1.97
2022-12-29T03:27:05.319Z,2.40
2022-12-29T03:28:35.481Z,2.00
2022-12-29T03:30:01.477Z,1.90
2022-12-29T03:31:24.600Z,2.17
2022-12-29T03:32:50.610Z,2.30
2022-12-29T03:34:14.927Z,2.73
2022-12-29T03:35:41.326Z,2.07
2022-12-29T03:37:15.187Z,2.30
2022-12-29T03:38:50.676Z,2.30
2022-12-29T03:40:13.327Z,2.13
2022-12-29T03:41:36.761Z,2.10
2022-12-29T03:42:59.404Z,1.93
2022-12-29T03:44:22.539Z,1.97
2022-12-29T03:45:44.708Z,2.30
2022-12-29T03:47:08.058Z,2.37
2022-12-29T03:48:30.297Z,2.10
2022-12-29T03:49:52.964Z,1.93
2022-12-29T03:51:15.243Z,2.30
2022-12-29T03:52:37.585Z,2.07
2022-12-29T03:53:59.777Z,2.37
2022-12-29T03:55:21.921Z,2.00
2022-12-29T03:56:44.110Z,2.63
2022-12-29T03:58:06.190Z,2.00
2022-12-29T03:59:28.279Z,2.30
2022-12-29T04:00:50.353Z,2.27
2022-12-29T04:02:12.671Z,2.40
2022-12-29T04:03:35.112Z,2.27
2022-12-29T04:04:57.246Z,2.40
2022-12-29T04:06:19.327Z,2.47
2022-12-29T04:07:41.553Z,2.53
2022-12-29T04:09:03.898Z,2.07
2022-12-29T04:10:26.318Z,2.10
2022-12-29T04:11:48.644Z,2.07
2022-12-29T04:13:10.700Z,1.90
2022-12-29T04:14:33.050Z,2.00
2022-12-29T04:15:55.168Z,2.23
2022-12-29T04:17:17.682Z,2.03
2022-12-29T04:18:40.552Z,2.33
2022-12-29T04:20:21.111Z,2.07
2022-12-29T04:21:43.434Z,2.10
2022-12-29T04:23:07.155Z,2.13
2022-12-29T04:24:29.283Z,1.43
2022-12-29T04:25:51.438Z,2.17
2022-12-29T04:27:16.354Z,1.83
2022-12-29T04:28:40.872Z,2.03
2022-12-29T04:30:03.940Z,1.90
2022-12-29T04:31:26.071Z,1.87
2022-12-29T04:32:48.313Z,1.90
2022-12-29T04:34:10.556Z,2.50
2022-12-29T04:35:32.843Z,1.60
2022-12-29T04:36:55.421Z,2.00
2022-12-29T04:38:17.542Z,2.00
2022-12-29T04:39:40.770Z,2.40
2022-12-29T04:41:03.546Z,2.37
2022-12-29T04:42:25.952Z,2.07
2022-12-29T04:43:48.019Z,2.40
2022-12-29T04:45:10.542Z,2.13
2022-12-29T04:46:32.790Z,2.20
2022-12-29T04:47:54.913Z,2.57
2022-12-29T04:49:16.952Z,2.10
2022-12-29T04:50:41.449Z,1.67
2022-12-29T04:52:03.822Z,2.40
2022-12-29T04:53:25.900Z,1.80
2022-12-29T04:54:48.039Z,1.70
2022-12-29T04:56:10.283Z,1.77
2022-12-29T04:57:32.615Z,2.10
2022-12-29T04:58:55.506Z,1.70
2022-12-29T05:00:18.129Z,1.60
2022-12-29T05:01:40.874Z,2.20
2022-12-29T05:03:03.241Z,1.80
2022-12-29T05:04:25.601Z,1.83
2022-12-29T05:05:47.911Z,1.93
2022-12-29T05:07:10.857Z,1.90
2022-12-29T05:08:32.964Z,1.53
2022-12-29T05:09:55.762Z,2.23
2022-12-29T05:11:17.850Z,1.80
2022-12-29T05:12:40.151Z,1.80
2022-12-29T05:14:02.349Z,1.50
2022-12-29T05:15:24.500Z,1.53
2022-12-29T05:16:46.832Z,1.60
2022-12-29T05:18:08.912Z,1.67
2022-12-29T05:19:31.536Z,1.43
2022-12-29T05:20:53.731Z,1.40
2022-12-29T05:22:15.841Z,1.53
2022-12-29T05:23:41.157Z,1.70
2022-12-29T05:25:03.863Z,1.47
2022-12-29T05:26:26.099Z,1.40
2022-12-29T05:27:48.434Z,1.67
2022-12-29T05:29:10.940Z,1.47
2022-12-29T05:30:33.197Z,1.93
2022-12-29T05:31:58.164Z,1.63
2022-12-29T05:33:20.565Z,1.63
2022-12-29T05:34:42.772Z,2.00
2022-12-29T05:36:06.934Z,1.27
2022-12-29T05:37:29.974Z,1.60
2022-12-29T05:38:52.029Z,1.43
2022-12-29T05:40:14.063Z,1.77
2022-12-29T05:41:36.733Z,1.83
2022-12-29T05:43:01.088Z,1.47
2022-12-29T05:44:23.372Z,1.77
2022-12-29T05:45:45.592Z,1.77
2022-12-29T05:47:07.957Z,1.80
2022-12-29T05:48:35.929Z,1.73
2022-12-29T05:50:00.095Z,1.50
2022-12-29T05:51:22.420Z,1.97
2022-12-29T05:52:44.947Z,1.70
2022-12-29T05:54:07.334Z,1.70
2022-12-29T05:55:29.489Z,1.60
2022-12-29T05:56:51.657Z,1.60
2022-12-29T05:58:14.299Z,1.60
2022-12-29T05:59:36.338Z,3.30
2022-12-29T06:00:58.416Z,1.77
2022-12-29T06:02:20.868Z,1.40
2022-12-29T06:03:48.131Z,1.67
2022-12-29T06:05:10.960Z,1.30
2022-12-29T06:06:33.210Z,1.43
2022-12-29T06:07:55.312Z,1.60
2022-12-29T06:09:17.621Z,1.30
2022-12-29T06:10:39.733Z,1.50
2022-12-29T06:12:01.805Z,1.57
2022-12-29T06:13:24.026Z,1.43
2022-12-29T06:14:46.138Z,1.83
2022-12-29T06:16:08.396Z,1.57
2022-12-29T06:17:30.572Z,1.47
2022-12-29T06:18:52.741Z,1.40
2022-12-29T06:20:14.967Z,1.60
2022-12-29T06:21:38.142Z,1.37
2022-12-29T06:23:00.316Z,1.50
2022-12-29T06:24:22.720Z,1.70
2022-12-29T06:25:44.903Z,1.77
2022-12-29T06:27:07.048Z,1.60
2022-12-29T06:28:29.608Z,1.43
2022-12-29T06:29:51.806Z,1.60
2022-12-29T06:31:14.003Z,1.83
2022-12-29T06:32:36.474Z,1.37
2022-12-29T06:34:01.273Z,1.70
2022-12-29T06:35:25.826Z,1.60
2022-12-29T06:36:48.036Z,1.80
2022-12-29T06:38:10.335Z,1.40
2022-12-29T06:39:32.486Z,1.30
2022-12-29T06:40:54.527Z,1.53
2022-12-29T06:42:16.691Z,1.70
2022-12-29T06:43:39.332Z,1.47
2022-12-29T06:45:01.951Z,1.77
2022-12-29T06:46:24.140Z,1.50
2022-12-29T06:47:46.219Z,1.50
2022-12-29T06:49:08.315Z,1.50
2022-12-29T06:50:30.497Z,1.70
2022-12-29T06:51:52.554Z,1.63
2022-12-29T06:53:14.731Z,1.80
2022-12-29T06:54:36.843Z,1.77
2022-12-29T06:55:58.954Z,1.33
2022-12-29T06:57:21.465Z,1.40
2022-12-29T06:58:43.511Z,1.40
2022-12-29T07:00:06.563Z,1.57
2022-12-29T07:01:29.387Z,2.07
2022-12-29T07:02:52.227Z,1.60
2022-12-29T07:04:14.437Z,1.50
2022-12-29T07:05:36.633Z,1.40
2022-12-29T07:06:58.795Z,1.57
2022-12-29T07:08:21.171Z,1.50
2022-12-29T07:09:43.187Z,1.30
2022-12-29T07:11:06.129Z,1.47
2022-12-29T07:12:28.423Z,1.50
2022-12-29T07:13:51.039Z,1.67
2022-12-29T07:15:13.671Z,1.23
2022-12-29T07:16:36.138Z,1.40
2022-12-29T07:17:58.388Z,3.10
2022-12-29T07:19:20.532Z,1.70
2022-12-29T07:20:42.652Z,1.50
2022-12-29T07:22:04.843Z,1.60
2022-12-29T07:23:26.926Z,1.90
2022-12-29T07:24:49.088Z,1.40
2022-12-29T07:26:14.343Z,1.80
2022-12-29T07:27:36.399Z,1.50
2022-12-29T07:28:58.580Z,1.73
2022-12-29T07:30:20.722Z,1.27
2022-12-29T07:31:42.828Z,1.70
2022-12-29T07:33:05.141Z,1.30
2022-12-29T07:34:27.169Z,1.60
2022-12-29T07:35:49.374Z,1.50
2022-12-29T07:37:11.584Z,1.70
2022-12-29T07:38:33.813Z,1.87
2022-12-29T07:39:56.033Z,2.47
2022-12-29T07:41:18.108Z,1.60
2022-12-29T07:42:40.302Z,1.80
2022-12-29T07:44:02.525Z,1.70
2022-12-29T07:45:24.622Z,2.10
2022-12-29T07:46:53.921Z,1.77
2022-12-29T07:48:18.840Z,1.87
2022-12-29T07:49:40.936Z,2.00
2022-12-29T07:51:03.445Z,1.97
2022-12-29T07:52:25.696Z,2.43
2022-12-29T07:53:48.135Z,2.17
2022-12-29T07:55:10.313Z,1.57
2022-12-29T07:56:32.490Z,2.23
2022-12-29T07:57:55.742Z,1.60
2022-12-29T07:59:17.866Z,1.83
2022-12-29T08:00:40.555Z,1.60
2022-12-29T08:02:02.808Z,2.10
2022-12-29T08:03:26.899Z,2.00
2022-12-29T08:04:48.973Z,1.80
2022-12-29T08:06:12.153Z,1.47
2022-12-29T08:07:34.371Z,1.90
2022-12-29T08:08:57.318Z,1.90
2022-12-29T08:10:19.829Z,1.73
2022-12-29T08:11:42.050Z,1.33
2022-12-29T08:13:04.193Z,1.60
2022-12-29T08:14:26.269Z,1.60
2022-12-29T08:15:48.380Z,1.43
2022-12-29T08:17:11.059Z,1.50
2022-12-29T08:18:33.234Z,1.70
2022-12-29T08:19:55.322Z,1.70
2022-12-29T08:21:17.520Z,1.77
2022-12-29T08:22:39.608Z,1.50
2022-12-29T08:24:01.734Z,1.90
2022-12-29T08:25:23.947Z,1.43
2022-12-29T08:26:46.294Z,1.50
2022-12-29T08:28:08.641Z,1.70
2022-12-29T08:29:30.743Z,1.77
2022-12-29T08:30:52.979Z,1.40
2022-12-29T08:32:15.538Z,1.53
2022-12-29T08:33:37.655Z,1.80
2022-12-29T08:34:59.696Z,1.73
2022-12-29T08:36:22.040Z,1.60
2022-12-29T08:37:44.158Z,1.57
2022-12-29T08:39:06.365Z,1.80
2022-12-29T08:40:28.604Z,1.53
2022-12-29T08:41:50.657Z,1.57
2022-12-29T08:43:14.212Z,1.50
2022-12-29T08:44:39.082Z,1.37
2022-12-29T08:46:01.563Z,1.40
2022-12-29T08:47:23.711Z,1.53
2022-12-29T08:48:46.339Z,1.50
2022-12-29T08:50:08.691Z,1.47
2022-12-29T08:51:30.761Z,1.30
2022-12-29T08:52:52.882Z,1.60
2022-12-29T08:54:15.119Z,1.47
2022-12-29T08:55:37.330Z,1.43
2022-12-29T08:56:59.446Z,1.37
2022-12-29T08:58:21.551Z,1.50
2022-12-29T08:59:43.696Z,1.40
2022-12-29T09:01:06.124Z,1.70
2022-12-29T09:02:28.368Z,1.30
2022-12-29T09:05:32.893Z,1.20
2022-12-29T09:06:54.986Z,1.37
2022-12-29T09:08:22.317Z,1.80
2022-12-29T09:09:47.604Z,1.20
2022-12-29T09:11:22.904Z,1.70
2022-12-29T09:12:45.065Z,1.30
2022-12-29T09:14:07.080Z,1.10
2022-12-29T09:15:29.223Z,1.60
2022-12-29T09:17:13.921Z,1.80
2022-12-29T09:18:36.620Z,1.53
2022-12-29T09:19:58.667Z,1.47
2022-12-29T09:21:20.955Z,1.60
2022-12-29T09:22:43.936Z,1.40
2022-12-29T09:24:06.278Z,1.50
2022-12-29T09:25:28.608Z,1.57
2022-12-29T09:26:50.664Z,1.30
2022-12-29T09:28:12.718Z,1.40
2022-12-29T09:29:34.772Z,1.60
2022-12-29T09:30:58.041Z,1.37
2022-12-29T09:32:21.968Z,1.77
2022-12-29T09:33:45.637Z,1.20
2022-12-29T09:35:08.216Z,1.30
2022-12-29T09:36:30.389Z,1.80
2022-12-29T09:37:52.436Z,1.30
2022-12-29T09:39:14.457Z,1.20
2022-12-29T09:40:36.916Z,1.60
2022-12-29T09:42:15.190Z,1.40
2022-12-29T09:44:04.246Z,1.40
2022-12-29T09:45:52.875Z,1.00
2022-12-29T09:47:16.986Z,1.43
2022-12-29T09:48:46.546Z,1.50
2022-12-29T09:50:31.908Z,1.10
2022-12-29T09:51:57.365Z,1.60
2022-12-29T09:53:30.935Z,1.20
2022-12-29T09:55:10.693Z,1.00
2022-12-29T09:56:35.751Z,1.50
2022-12-29T09:58:02.032Z,1.13
2022-12-29T09:59:45.000Z,1.53
2022-12-29T10:01:19.129Z,1.60
2022-12-29T10:03:00.352Z,1.27
2022-12-29T10:04:22.521Z,1.10
2022-12-29T10:05:49.176Z,1.20
2022-12-29T10:07:34.396Z,1.40
2022-12-29T10:09:14.561Z,1.40
2022-12-29T10:10:44.218Z,1.47
2022-12-29T10:12:14.997Z,1.90
2022-12-29T10:14:14.035Z,1.17
2022-12-29T10:15:44.069Z,1.20
2022-12-29T10:17:40.113Z,1.00
2022-12-29T10:19:07.889Z,1.17
2022-12-29T10:20:49.826Z,0.90
2022-12-29T10:22:11.982Z,1.13
2022-12-29T10:23:44.705Z,1.33
2022-12-29T10:25:18.562Z,1.20
2022-12-29T10:26:42.987Z,1.30
2022-12-29T10:28:22.526Z,1.40
2022-12-29T10:29:53.169Z,1.00
2022-12-29T10:31:22.053Z,1.30
2022-12-29T10:32:55.725Z,0.90
2022-12-29T10:34:30.526Z,0.90
2022-12-29T10:35:52.941Z,0.90
2022-12-29T10:37:46.078Z,0.80
2022-12-29T10:39:31.734Z,0.80
2022-12-29T10:41:06.294Z,0.80
2022-12-29T10:42:49.977Z,0.90
2022-12-29T10:44:16.635Z,0.90
2022-12-29T10:45:40.006Z,0.90
2022-12-29T10:47:07.264Z,0.70
2022-12-29T10:48:34.668Z,0.90
2022-12-29T10:49:59.256Z,1.00
2022-12-29T10:51:32.826Z,0.82
2022-12-29T10:52:56.799Z,0.97
2022-12-29T10:54:34.799Z,0.60
2022-12-29T10:55:57.689Z,0.90
2022-12-29T10:57:37.272Z,0.67
2022-12-29T10:59:05.135Z,0.80
2022-12-29T11:00:27.216Z,0.67
2022-12-29T11:02:27.728Z,0.73
2022-12-29T11:04:06.147Z,0.70
2022-12-29T11:05:31.113Z,0.70
2022-12-29T11:06:53.683Z,0.80
2022-12-29T11:08:20.567Z,0.90
2022-12-29T11:09:43.966Z,0.70
2022-12-29T11:11:08.613Z,0.57
2022-12-29T11:12:32.142Z,0.70
2022-12-29T11:14:02.863Z,0.60
2022-12-29T11:15:25.032Z,0.87
2022-12-29T11:17:01.334Z,0.70
2022-12-29T11:18:26.183Z,0.60
2022-12-29T11:19:48.274Z,0.80
2022-12-29T11:21:29.175Z,0.80
2022-12-29T11:22:53.564Z,0.80
2022-12-29T11:24:27.798Z,0.70
2022-12-29T11:26:11.810Z,0.80
2022-12-29T11:27:33.966Z,0.80
2022-12-29T11:29:16.870Z,0.60
2022-12-29T11:30:38.942Z,0.93
2022-12-29T11:32:27.896Z,0.93
2022-12-29T11:33:50.776Z,0.90
2022-12-29T11:35:35.129Z,0.80
2022-12-29T11:37:12.277Z,0.80
2022-12-29T11:38:41.358Z,0.70
2022-12-29T11:40:17.051Z,0.80
2022-12-29T11:41:39.162Z,0.90
2022-12-29T11:43:06.348Z,0.90
2022-12-29T11:44:28.850Z,0.70
2022-12-29T11:45:53.561Z,0.80
2022-12-29T11:47:25.973Z,0.80
2022-12-29T11:48:49.411Z,1.07
2022-12-29T11:50:28.694Z,0.70
2022-12-29T11:51:52.571Z,0.90
2022-12-29T11:53:49.831Z,1.20
2022-12-29T11:55:25.481Z,1.85
2022-12-29T11:56:48.087Z,1.27
2022-12-29T11:58:16.893Z,2.23
2022-12-29T11:59:42.878Z,2.50
2022-12-29T12:01:11.542Z,2.40
2022-12-29T12:02:49.208Z,1.80
2022-12-29T12:04:17.561Z,1.53
2022-12-29T12:05:54.997Z,0.90
2022-12-29T12:07:25.680Z,1.20
2022-12-29T12:08:57.711Z,1.37
2022-12-29T12:10:39.487Z,1.10
2022-12-29T12:12:04.399Z,1.07
2022-12-29T12:13:44.921Z,0.90
2022-12-29T12:15:11.291Z,1.00
2022-12-29T12:16:42.532Z,0.90
2022-12-29T12:18:10.743Z,1.00
2022-12-29T12:19:44.406Z,0.80
2022-12-29T12:21:33.253Z,0.80
2022-12-29T12:23:02.913Z,0.90
2022-12-29T12:24:24.935Z,0.80
2022-12-29T12:26:19.047Z,0.70
2022-12-29T12:27:41.349Z,1.30
2022-12-29T12:29:23.325Z,0.83
2022-12-29T12:30:49.913Z,0.90
2022-12-29T12:32:17.777Z,0.93
2022-12-29T12:33:45.701Z,0.80
2022-12-29T12:35:21.824Z,0.77
2022-12-29T12:37:22.893Z,0.90
2022-12-29T12:38:56.901Z,0.70
2022-12-29T12:40:30.128Z,1.03
2022-12-29T12:42:29.074Z,0.60
2022-12-29T12:44:02.921Z,0.60
2022-12-29T12:45:53.009Z,0.70
2022-12-29T12:47:35.715Z,0.90
2022-12-29T12:49:12.923Z,0.80
2022-12-29T12:50:59.550Z,0.90
2022-12-29T12:52:53.588Z,0.90
2022-12-29T12:54:39.972Z,1.10
2022-12-29T12:56:13.758Z,1.10
2022-12-29T12:57:54.647Z,2.50
2022-12-29T12:59:52.115Z,1.40
2022-12-29T13:01:35.024Z,1.07
2022-12-29T13:03:18.360Z,1.00
2022-12-29T13:04:49.461Z,1.23
2022-12-29T13:06:48.632Z,0.80
2022-12-29T13:08:35.831Z,0.77
2022-12-29T13:10:33.028Z,1.00
2022-12-29T13:12:09.467Z,0.80
2022-12-29T13:13:46.987Z,1.20
2022-12-29T13:15:39.302Z,0.80
2022-12-29T13:17:25.407Z,0.80
2022-12-29T13:19:11.876Z,1.03
2022-12-29T13:20:52.362Z,1.10
2022-12-29T13:22:42.125Z,1.00
2022-12-29T13:24:19.203Z,1.20
2022-12-29T13:25:54.774Z,0.90
2022-12-29T13:27:19.096Z,1.00
2022-12-29T13:28:59.061Z,1.10
2022-12-29T13:30:24.289Z,1.10
2022-12-29T13:32:17.524Z,0.90
2022-12-29T13:33:42.394Z,1.07
2022-12-29T13:35:17.941Z,1.10
2022-12-29T13:37:11.216Z,0.87
2022-12-29T13:38:41.502Z,0.90
2022-12-29T13:40:12.502Z,0.97
2022-12-29T13:42:05.678Z,1.03
2022-12-29T13:43:29.705Z,1.17
2022-12-29T13:45:01.342Z,0.97
2022-12-29T13:46:29.430Z,1.20
2022-12-29T13:48:20.539Z,1.17
2022-12-29T13:49:43.629Z,0.90
2022-12-29T13:51:06.866Z,0.90
2022-12-29T13:52:41.651Z,1.20
2022-12-29T13:54:15.444Z,1.00
2022-12-29T13:55:58.461Z,0.90
2022-12-29T13:57:54.310Z,1.10
2022-12-29T13:59:36.813Z,0.97
2022-12-29T14:01:09.453Z,0.97
2022-12-29T14:02:47.044Z,1.00
2022-12-29T14:04:22.062Z,0.90
2022-12-29T14:05:48.259Z,0.80
2022-12-29T14:07:18.522Z,0.90
2022-12-29T14:08:41.142Z,1.00
2022-12-29T14:10:03.609Z,1.30
2022-12-29T14:11:33.546Z,0.90
2022-12-29T14:13:11.953Z,0.80
2022-12-29T14:14:36.313Z,0.90
2022-12-29T14:16:00.077Z,1.10
2022-12-29T14:17:22.580Z,0.90
2022-12-29T14:18:45.661Z,0.90
2022-12-29T14:20:20.599Z,1.00
2022-12-29T14:21:51.087Z,1.00
2022-12-29T14:23:13.179Z,1.23
2022-12-29T14:24:38.629Z,1.40
2022-12-29T14:26:06.835Z,1.47
2022-12-29T14:27:28.861Z,1.03
2022-12-29T14:28:51.057Z,1.00
2022-12-29T14:30:48.844Z,1.00
2022-12-29T14:32:34.139Z,0.93
2022-12-29T14:34:08.389Z,1.07
2022-12-29T14:35:40.728Z,1.23
2022-12-29T14:37:04.121Z,1.17
2022-12-29T14:38:29.894Z,1.10
2022-12-29T14:40:19.653Z,1.23
2022-12-29T14:41:42.290Z,1.43
2022-12-29T14:43:33.286Z,1.10
2022-12-29T14:45:13.998Z,1.47
2022-12-29T14:47:09.258Z,1.10
2022-12-29T14:48:34.102Z,1.10
2022-12-29T14:49:56.938Z,1.07
2022-12-29T14:51:25.702Z,1.43
2022-12-29T14:53:04.385Z,1.40
2022-12-29T14:54:32.749Z,1.20
2022-12-29T14:55:58.930Z,1.17
2022-12-29T14:57:28.896Z,1.20
2022-12-29T14:59:03.878Z,1.10
2022-12-29T15:00:32.663Z,1.50
2022-12-29T15:01:56.299Z,0.87
2022-12-29T15:03:44.214Z,1.33
2022-12-29T15:05:07.626Z,1.03
2022-12-29T15:06:31.395Z,1.00
2022-12-29T15:07:54.576Z,1.10
2022-12-29T15:09:39.589Z,0.97
2022-12-29T15:11:12.937Z,1.10
2022-12-29T15:12:52.671Z,1.27
2022-12-29T15:14:35.141Z,1.53
2022-12-29T15:15:58.234Z,1.10
2022-12-29T15:17:32.362Z,1.27
2022-12-29T15:18:54.639Z,0.80
2022-12-29T15:20:29.886Z,1.10
2022-12-29T15:21:53.132Z,1.37
2022-12-29T15:23:15.935Z,1.00
2022-12-29T15:24:43.629Z,0.70
2022-12-29T15:26:08.079Z,1.10
2022-12-29T15:27:30.519Z,1.00
2022-12-29T15:28:55.498Z,1.77
2022-12-29T15:30:18.319Z,0.90
2022-12-29T15:31:49.548Z,1.00
2022-12-29T15:33:23.835Z,1.40
2022-12-29T15:34:48.932Z,1.00
2022-12-29T15:36:35.756Z,1.17
2022-12-29T15:37:59.273Z,1.00
2022-12-29T15:39:30.353Z,1.27
2022-12-29T15:40:58.966Z,1.40
2022-12-29T15:42:28.623Z,1.10
2022-12-29T15:44:10.217Z,1.23
2022-12-29T15:45:36.388Z,1.40
2022-12-29T15:46:59.157Z,1.20
2022-12-29T15:48:24.082Z,1.02
2022-12-29T15:49:50.564Z,1.00
2022-12-29T15:51:23.839Z,1.67
2022-12-29T15:52:46.018Z,1.63
2022-12-29T15:54:21.401Z,1.40
2022-12-29T15:55:44.562Z,1.30
2022-12-29T15:57:26.065Z,1.07
2022-12-29T15:58:51.189Z,1.27
2022-12-29T16:00:28.043Z,1.17
2022-12-29T16:01:50.796Z,1.30
2022-12-29T16:03:14.813Z,1.80
2022-12-29T16:04:54.019Z,1.00
2022-12-29T16:06:40.185Z,1.60
2022-12-29T16:08:03.756Z,1.40
2022-12-29T16:09:43.936Z,1.70
2022-12-29T16:11:23.375Z,1.10
2022-12-29T16:12:45.690Z,1.10
2022-12-29T16:14:17.359Z,2.23
2022-12-29T16:15:39.548Z,1.30
2022-12-29T16:17:07.410Z,1.40
2022-12-29T16:18:35.188Z,1.40
2022-12-29T16:20:02.039Z,1.67
2022-12-29T16:21:34.954Z,1.13
2022-12-29T16:22:58.826Z,1.40
2022-12-29T16:24:24.426Z,1.37
2022-12-29T16:25:46.749Z,1.30
2022-12-29T16:27:27.719Z,1.20
2022-12-29T16:28:55.347Z,1.30
2022-12-29T16:30:29.506Z,1.10
2022-12-29T16:32:06.540Z,1.20
2022-12-29T16:33:55.191Z,1.30
2022-12-29T16:35:26.737Z,1.30
2022-12-29T16:37:22.392Z,1.43
2022-12-29T16:38:47.384Z,1.03
2022-12-29T16:40:30.168Z,1.30
2022-12-29T16:41:52.568Z,1.30
2022-12-29T16:43:29.243Z,1.50
2022-12-29T16:45:07.925Z,1.20
2022-12-29T16:46:31.437Z,1.30
2022-12-29T16:48:08.620Z,1.40
2022-12-29T16:49:35.787Z,2.00
2022-12-29T16:51:13.003Z,1.10
2022-12-29T16:52:35.769Z,1.43
2022-12-29T16:53:58.968Z,1.37
2022-12-29T16:55:21.317Z,1.30
2022-12-29T16:56:45.827Z,1.17
2022-12-29T16:58:26.639Z,1.60
2022-12-29T16:59:52.722Z,1.47
2022-12-29T17:01:20.233Z,1.60
2022-12-29T17:02:46.043Z,1.30
2022-12-29T17:04:13.925Z,1.77
2022-12-29T17:05:35.997Z,1.30
2022-12-29T17:06:58.312Z,1.50
2022-12-29T17:08:24.765Z,1.80
2022-12-29T17:09:46.863Z,2.03
2022-12-29T17:11:41.202Z,1.27
2022-12-29T17:13:03.256Z,1.80
2022-12-29T17:14:47.770Z,1.50
2022-12-29T17:16:12.788Z,1.37
2022-12-29T17:17:49.140Z,1.27
2022-12-29T17:19:18.736Z,1.10
2022-12-29T17:20:40.918Z,1.50
2022-12-29T17:22:03.562Z,1.23
2022-12-29T17:23:26.897Z,1.17
2022-12-29T17:24:49.091Z,1.30
2022-12-29T17:26:12.923Z,1.20
2022-12-29T17:27:41.875Z,1.30
2022-12-29T17:29:04.596Z,1.10
2022-12-29T17:30:33.503Z,1.30
2022-12-29T17:31:56.330Z,1.30
2022-12-29T17:33:20.548Z,1.20
2022-12-29T17:34:42.668Z,1.00
2022-12-29T17:36:04.944Z,1.00
2022-12-29T17:37:36.562Z,1.00
2022-12-29T17:38:58.652Z,0.98
2022-12-29T17:40:33.866Z,1.00
2022-12-29T17:41:56.015Z,0.93
2022-12-29T17:43:18.750Z,1.30
2022-12-29T17:44:42.253Z,1.00
2022-12-29T17:46:06.408Z,1.27
2022-12-29T17:47:28.595Z,0.80
2022-12-29T17:48:53.913Z,0.73
2022-12-29T17:50:19.347Z,0.83
2022-12-29T17:51:44.408Z,0.77
2022-12-29T17:53:12.541Z,0.90
2022-12-29T17:54:34.744Z,0.80
2022-12-29T17:55:57.146Z,0.80
2022-12-29T17:57:21.152Z,0.90
2022-12-29T17:58:43.844Z,0.97
2022-12-29T18:00:06.709Z,1.00
2022-12-29T18:01:35.451Z,1.10
2022-12-29T18:02:58.927Z,0.97
2022-12-29T18:04:21.282Z,0.80
2022-12-29T18:05:43.706Z,1.00
2022-12-29T18:07:11.343Z,1.07
2022-12-29T18:08:35.334Z,0.73
2022-12-29T18:09:57.447Z,0.73
2022-12-29T18:11:25.811Z,0.90
2022-12-29T18:12:50.113Z,0.67
2022-12-29T18:14:17.217Z,1.10
2022-12-29T18:15:39.352Z,0.90
2022-12-29T18:17:01.397Z,0.80
2022-12-29T18:18:25.983Z,1.13
2022-12-29T18:19:48.147Z,1.00
2022-12-29T18:21:24.866Z,0.90
2022-12-29T18:22:47.083Z,1.13
2022-12-29T18:24:15.253Z,1.10
2022-12-29T18:25:47.767Z,1.37
2022-12-29T18:27:14.991Z,1.30
2022-12-29T18:28:37.054Z,1.00
2022-12-29T18:29:59.197Z,1.00
2022-12-29T18:31:24.008Z,1.53
2022-12-29T18:32:46.323Z,0.80
2022-12-29T18:34:15.081Z,1.03
2022-12-29T18:35:40.770Z,1.10
2022-12-29T18:37:02.960Z,1.30
2022-12-29T18:38:25.186Z,1.60
2022-12-29T18:39:47.308Z,1.10
2022-12-29T18:41:16.439Z,1.10
2022-12-29T18:42:38.521Z,1.10
2022-12-29T18:44:00.795Z,1.37
2022-12-29T18:45:24.289Z,1.70
2022-12-29T18:46:46.524Z,1.20
2022-12-29T18:48:08.735Z,1.70
2022-12-29T18:49:30.844Z,1.13
2022-12-29T18:50:53.359Z,1.30
2022-12-29T18:52:15.420Z,1.40
2022-12-29T18:53:37.957Z,1.13
2022-12-29T18:55:00.138Z,1.10
2022-12-29T18:56:23.630Z,1.00
2022-12-29T18:57:45.896Z,1.10
2022-12-29T18:59:08.003Z,1.30
2022-12-29T19:00:30.226Z,1.20
2022-12-29T19:01:52.700Z,1.27
2022-12-29T19:03:17.207Z,1.63
2022-12-29T19:04:39.355Z,2.70
2022-12-29T19:06:01.476Z,2.20
2022-12-29T19:07:23.586Z,1.90
2022-12-29T19:08:45.661Z,2.13
2022-12-29T19:10:07.989Z,5.67
2022-12-29T19:11:30.044Z,2.90
2022-12-29T19:12:52.660Z,1.90
2022-12-29T19:14:17.159Z,1.60
2022-12-29T19:15:39.510Z,2.00
2022-12-29T19:17:01.666Z,1.80
2022-12-29T19:18:44.060Z,2.07
2022-12-29T19:20:07.546Z,1.70
2022-12-29T19:21:29.577Z,3.77
2022-12-29T19:22:51.628Z,1.40
2022-12-29T19:24:13.732Z,1.10
2022-12-29T19:25:38.781Z,1.33
2022-12-29T19:27:00.852Z,1.07
2022-12-29T19:28:28.113Z,1.00
2022-12-29T19:29:50.235Z,1.43
2022-12-29T19:31:12.362Z,1.40
2022-12-29T19:32:34.452Z,1.30
2022-12-29T19:33:56.678Z,1.10
2022-12-29T19:35:20.379Z,1.07
2022-12-29T19:36:44.435Z,1.67